Overview Statistics Trail Chart Weather Telemetry Raw packets
 

This is the latest recevied weather packets stored in our database for station/object SR4DIG-13. If no packets are shown the sender has not sent any weather packets the latest 10 day(s).

<< 52 53 54 55 56 57 58 >>
Time Temp. Humidity Pressure Rain* Wind** Luminosity Snow
1788271933 20° C 66% 1013.2 hPa 0 mm - - -
1788271632 20.56° C 65% 1013 hPa 0 mm - - -
1788271331 20° C 67% 1013 hPa 0 mm - - -
1788271030 19.44° C 68% 1013.2 hPa 0 mm - - -
1788270729 18.89° C 68% 1013.2 hPa 0 mm - - -
1788270429 18.89° C 68% 1013.2 hPa 0 mm - - -
1788270127 19.44° C 66% 1013 hPa 0 mm - - -
1788269826 20° C 65% 1013 hPa 0 mm - - -
1788269525 20° C 66% 1013.1 hPa 0 mm - - -
1788269225 19.44° C 64% 1013.1 hPa 0 mm - - -
1788268688 20° C 61% 1013.3 hPa 0 mm - - -
1788268387 20° C 61% 1013.3 hPa 0 mm - - -
1788268086 20° C 61% 1013 hPa 0 mm - - -
1788267785 20° C 60% 1013.1 hPa 0 mm - - -
1788267484 20.56° C 62% 1013 hPa 0 mm - - -
1788267183 20.56° C 63% 1012.6 hPa 0 mm - - -
1788266882 20° C 67% 1012.4 hPa 0 mm - - -
1788266582 19.44° C 68% 1012.2 hPa 0 mm - - -
1788266280 18.89° C 69% 1012.1 hPa 0 mm - - -
1788265979 18.33° C 69% 1012 hPa 0 mm - - -
1788265678 18.33° C 68% 1012.1 hPa 0 mm - - -
1788265378 18.89° C 65% 1012.2 hPa 0 mm - - -
1788265077 20° C 61% 1012.3 hPa 0 mm - - -
1788264797 21.11° C 56% 1012.3 hPa 0 mm - - -
1788264475 22.78° C 52% 1012.2 hPa 0 mm - - -

* Rain latest hour (hover to see other rain measurements)
** Current wind speed in m/s (hover to see current wind gust speed)